Time;durP1;ratioP1;P1;durP2;ratioP2;P2;SDS_P1;SDS_P2;PMS_P1;PMS_P2;Temp;Humidity;BMP_temperature;BMP_pressure;BME280_temperature;BME280_humidity;BME280_pressure;Samples;Min_cycle;Max_cycle;Signal;HPM_P1;HPM_P2
2022/07/08 00:04:50;;;;;;;3.20;2.90;;;;;;;15.09;70.78;98961.52;220020;1276;22557;-71
2022/07/08 00:09:56;;;;;;;4.40;3.20;;;;;;;15.10;71.04;98961.81;219892;1276;23180;-72
2022/07/08 00:14:59;;;;;;;4.20;3.10;;;;;;;15.13;71.28;98963.25;219655;1276;711033;-71
2022/07/08 00:20:04;;;;;;;3.40;3.00;;;;;;;15.15;71.29;98962.05;220072;1278;24235;-71
2022/07/08 00:25:07;;;;;;;4.30;3.20;;;;;;;15.17;71.39;98963.98;220029;1276;22571;-72
2022/07/08 00:30:10;;;;;;;3.60;3.10;;;;;;;15.17;71.61;98969.06;220171;1276;22605;-71
2022/07/08 00:35:15;;;;;;;5.30;3.40;;;;;;;15.17;71.82;98971.06;220077;1276;22580;-71
2022/07/08 00:40:43;;;;;;;4.00;3.50;;;;;;;15.16;71.95;98975.98;220053;1276;25379;-71
2022/07/08 00:45:49;;;;;;;;;;;;;;;15.16;72.33;98972.11;220131;1276;22533;-69
2022/07/08 00:50:54;;;;;;;3.80;3.40;;;;;;;15.17;72.33;98974.84;220406;1276;23326;-72
2022/07/08 00:56:01;;;;;;;3.50;3.20;;;;;;;15.16;72.49;98971.66;220229;1276;22578;-72
2022/07/08 01:01:05;;;;;;;3.20;2.90;;;;;;;15.15;72.65;98978.87;220312;1276;22623;-70
2022/07/08 01:06:12;;;;;;;3.60;2.90;;;;;;;15.16;72.79;98980.36;220276;1276;25314;-71
2022/07/08 01:11:15;;;;;;;4.10;3.50;;;;;;;15.16;73.01;98979.69;220308;1276;24763;-71
2022/07/08 01:16:17;;;;;;;4.10;3.70;;;;;;;15.18;73.12;98984.84;220155;1276;24359;-71
2022/07/08 01:21:22;;;;;;;3.60;3.30;;;;;;;15.18;73.27;98985.70;220197;1276;22535;-72
2022/07/08 01:26:29;;;;;;;4.90;3.50;;;;;;;15.18;73.37;98988.66;220142;1276;25492;-71
2022/07/08 01:31:43;;;;;;;3.80;3.50;;;;;;;15.18;73.54;98990.28;220085;1276;22555;-71
2022/07/08 01:36:45;;;;;;;4.60;3.50;;;;;;;15.18;73.63;98988.24;220304;1276;22792;-72
2022/07/08 01:41:48;;;;;;;4.20;3.70;;;;;;;15.17;73.72;98985.77;220174;1276;22540;-71
2022/07/08 01:46:50;;;;;;;4.80;3.90;;;;;;;15.19;73.87;98985.73;219848;1276;25332;-72
2022/07/08 01:51:53;;;;;;;4.20;3.80;;;;;;;15.20;74.24;98994.54;220330;1278;22531;-72
2022/07/08 01:57:13;;;;;;;4.80;3.50;;;;;;;15.23;74.26;98996.79;220196;1276;22599;-71
2022/07/08 02:02:24;;;;;;;4.00;3.60;;;;;;;15.24;74.41;99001.09;220498;1276;22655;-71
2022/07/08 02:07:37;;;;;;;4.20;3.80;;;;;;;15.25;74.39;99005.20;220489;1276;24799;-72
2022/07/08 02:12:59;;;;;;;4.50;4.10;;;;;;;15.26;74.48;99006.42;220409;1276;22535;-72
2022/07/08 02:18:02;;;;;;;4.50;3.70;;;;;;;15.29;74.54;99009.95;220390;1276;25255;-72
2022/07/08 02:23:04;;;;;;;4.70;4.30;;;;;;;15.30;74.70;99010.53;220306;1276;22635;-72
2022/07/08 02:28:12;;;;;;;4.20;3.70;;;;;;;15.30;74.77;99014.19;220343;1276;22657;-71
2022/07/08 02:33:25;;;;;;;5.70;4.30;;;;;;;15.31;74.90;99019.08;220449;1276;26400;-72
2022/07/08 02:38:28;;;;;;;4.80;4.40;;;;;;;15.30;74.89;99017.16;220323;1276;22642;-72
2022/07/08 02:43:32;;;;;;;4.70;4.30;;;;;;;15.30;75.12;99018.94;220380;1276;22531;-72
2022/07/08 02:48:49;;;;;;;5.00;4.50;;;;;;;15.31;75.44;99021.68;220230;1276;25295;-71
2022/07/08 02:53:51;;;;;;;4.90;4.50;;;;;;;15.29;75.65;99025.45;220231;1277;22551;-71
2022/07/08 02:59:02;;;;;;;5.70;4.90;;;;;;;15.27;75.85;99031.16;220360;1276;22706;-71
2022/07/08 03:04:05;;;;;;;5.00;4.50;;;;;;;15.27;75.89;99036.08;220452;1276;22540;-71
2022/07/08 03:09:10;;;;;;;6.70;5.00;;;;;;;15.29;75.99;99032.74;220345;1276;22555;-71
2022/07/08 03:14:15;;;;;;;4.90;4.50;;;;;;;15.30;75.98;99041.30;220212;1276;24260;-72
2022/07/08 03:19:29;;;;;;;5.50;4.80;;;;;;;15.30;76.14;99049.55;219961;1276;22561;-72
2022/07/08 03:24:32;;;;;;;5.50;5.00;;;;;;;15.29;76.15;99053.35;220616;1276;24352;-71
2022/07/08 03:29:34;;;;;;;5.10;4.60;;;;;;;15.29;76.20;99063.39;220323;1276;22613;-72
2022/07/08 03:34:37;;;;;;;5.30;4.80;;;;;;;15.31;76.34;99069.49;220385;1276;24194;-71
2022/07/08 03:39:42;;;;;;;5.00;4.60;;;;;;;15.32;76.38;99069.63;220426;1276;22569;-71
2022/07/08 03:44:58;;;;;;;6.30;4.70;;;;;;;15.33;76.37;99078.06;220568;1276;24514;-72
2022/07/08 03:50:19;;;;;;;6.30;5.00;;;;;;;15.35;76.49;99082.50;220324;1276;24333;-71
2022/07/08 03:55:30;;;;;;;5.90;5.40;;;;;;;15.35;76.57;99090.50;220697;1278;22567;-71
2022/07/08 04:00:33;;;;;;;5.80;4.90;;;;;;;15.37;76.78;99094.79;220514;1276;22610;-72
2022/07/08 04:05:40;;;;;;;5.60;5.10;;;;;;;15.42;76.89;99097.26;220684;1276;24359;-72
2022/07/08 04:10:43;;;;;;;5.50;5.00;;;;;;;15.48;76.78;99099.41;220534;1276;24266;-71
2022/07/08 04:15:45;;;;;;;7.20;4.90;;;;;;;15.54;76.84;99105.94;220537;1276;22531;-71
2022/07/08 04:20:51;;;;;;;5.90;5.30;;;;;;;15.62;76.84;99115.69;220443;1276;22724;-72
2022/07/08 04:26:01;;;;;;;6.30;5.40;;;;;;;15.67;76.82;99115.34;220410;1276;22547;-72
2022/07/08 04:31:03;;;;;;;5.90;5.40;;;;;;;15.77;76.76;99117.03;220622;1277;22550;-72
2022/07/08 04:36:06;;;;;;;5.30;4.80;;;;;;;15.90;76.70;99122.95;220783;1276;22711;-71
2022/07/08 04:41:08;;;;;;;5.90;5.40;;;;;;;15.99;76.56;99126.79;220601;1276;22563;-71
2022/07/08 04:46:24;;;;;;;5.60;5.20;;;;;;;16.10;76.46;99134.09;220602;1277;22622;-72
2022/07/08 04:51:28;;;;;;;5.50;5.10;;;;;;;16.23;76.34;99137.30;220453;1278;22578;-72
2022/07/08 04:56:33;;;;;;;5.30;4.80;;;;;;;16.37;76.12;99135.97;220704;1276;22550;-71
2022/07/08 05:01:36;;;;;;;5.80;5.30;;;;;;;16.53;76.05;99139.02;220526;1276;24160;-71
2022/07/08 05:06:41;;;;;;;6.30;5.70;;;;;;;16.72;75.70;99146.30;220747;1276;24921;-72
2022/07/08 05:11:44;;;;;;;5.90;5.40;;;;;;;16.87;75.36;99151.16;220805;1276;25342;-71
2022/07/08 05:16:46;;;;;;;5.50;5.00;;;;;;;17.03;75.15;99153.63;220789;1276;22675;-72
2022/07/08 05:21:51;;;;;;;5.60;5.10;;;;;;;17.21;74.78;99157.08;220640;1276;23535;-71
2022/07/08 05:26:54;;;;;;;5.60;5.10;;;;;;;17.35;74.35;99163.55;220675;1276;22653;-72
2022/07/08 05:31:56;;;;;;;6.00;5.50;;;;;;;17.53;74.11;99168.13;220591;1276;24094;-72
2022/07/08 05:37:00;;;;;;;5.60;5.10;;;;;;;17.67;73.68;99171.18;220797;1276;22485;-72
2022/07/08 05:42:03;;;;;;;6.20;5.60;;;;;;;17.81;73.33;99179.16;220591;1276;22524;-71
2022/07/08 05:47:07;;;;;;;6.40;5.70;;;;;;;17.97;73.04;99179.09;220673;1276;24273;-72
2022/07/08 05:52:11;;;;;;;6.30;5.70;;;;;;;18.05;72.51;99179.95;220950;1276;22557;-72
2022/07/08 05:57:15;;;;;;;6.20;5.60;;;;;;;18.03;72.33;99181.88;220667;1276;25320;-72
2022/07/08 06:02:23;;;;;;;;;;;;;;;18.09;72.43;99181.13;220797;1276;23322;-71
2022/07/08 06:07:25;;;;;;;6.50;6.00;;;;;;;18.21;72.34;99185.75;220872;1276;22676;-72
2022/07/08 06:12:30;;;;;;;6.10;5.60;;;;;;;18.40;72.29;99182.21;220835;1276;22563;-72
2022/07/08 06:17:36;;;;;;;5.90;5.40;;;;;;;18.69;71.92;99181.77;220814;1276;22679;-71
2022/07/08 06:22:45;;;;;;;5.30;4.80;;;;;;;19.00;71.53;99188.23;220952;1276;22522;-71
2022/07/08 06:27:47;;;;;;;4.90;4.50;;;;;;;19.26;70.51;99192.55;220866;1276;22545;-70
2022/07/08 06:32:59;;;;;;;5.70;5.20;;;;;;;19.45;69.77;99190.31;221037;1276;25256;-72
2022/07/08 06:38:08;;;;;;;6.20;5.70;;;;;;;19.56;69.05;99190.38;220933;1276;22918;-71
2022/07/08 06:43:20;;;;;;;4.60;4.30;;;;;;;19.73;68.55;99194.56;220721;1276;22479;-72
2022/07/08 06:48:25;;;;;;;4.70;4.30;;;;;;;19.74;67.91;99198.94;220823;1276;22540;-72
2022/07/08 06:54:34;;;;;;;5.30;4.70;;;;;;;19.61;67.65;99197.73;220451;1276;23814;-72
2022/07/08 06:58:56;;;;;;;5.40;4.90;;;;;;;19.46;68.02;99200.22;220406;1276;22703;-72
2022/07/08 07:04:19;;;;;;;4.80;4.40;;;;;;;19.62;68.31;99201.98;220685;1276;22579;-72
2022/07/08 07:09:22;;;;;;;4.70;4.30;;;;;;;20.12;68.40;99201.38;220726;1276;22565;-72
2022/07/08 07:14:27;;;;;;;4.10;3.70;;;;;;;20.65;67.11;99204.05;220491;1276;22574;-71
2022/07/08 07:19:39;;;;;;;4.40;4.00;;;;;;;20.94;65.30;99202.09;220773;1276;22473;-71
2022/07/08 07:24:42;;;;;;;4.20;3.90;;;;;;;21.06;64.62;99208.31;220633;1276;22564;-72
2022/07/08 07:29:45;;;;;;;4.50;4.10;;;;;;;21.34;64.24;99219.54;220505;1276;22768;-73
2022/07/08 07:34:50;;;;;;;4.60;4.30;;;;;;;21.33;63.44;99227.38;220440;1276;22553;-71
2022/07/08 07:39:53;;;;;;;4.80;4.40;;;;;;;21.31;63.43;99223.84;220812;1276;23011;-72
2022/07/08 07:44:55;;;;;;;4.30;4.00;;;;;;;21.30;62.81;99219.27;220646;1275;25360;-72
2022/07/08 07:49:59;;;;;;;4.90;4.50;;;;;;;21.08;62.56;99220.73;220734;1276;25436;-72
2022/07/08 07:55:01;;;;;;;5.50;5.10;;;;;;;20.83;62.71;99214.61;220577;1276;24166;-72
2022/07/08 08:00:09;;;;;;;4.20;3.90;;;;;;;20.58;63.00;99209.35;220492;1277;22507;-72
2022/07/08 08:05:15;;;;;;;4.50;4.10;;;;;;;20.79;63.50;99205.99;220774;1276;22845;-72
2022/07/08 08:10:18;;;;;;;4.10;3.80;;;;;;;21.23;63.12;99205.88;220743;1276;25445;-71
2022/07/08 08:15:22;;;;;;;4.70;4.30;;;;;;;21.71;62.33;99205.38;220660;1276;25411;-72
2022/07/08 08:20:28;;;;;;;4.30;4.00;;;;;;;21.86;61.20;99209.80;220592;1276;23383;-72
2022/07/08 08:25:31;;;;;;;3.60;3.40;;;;;;;22.08;60.84;99208.52;220852;1276;23430;-72
2022/07/08 08:30:33;;;;;;;4.30;4.00;;;;;;;22.64;60.96;99205.36;220364;1276;22557;-72
2022/07/08 08:35:35;;;;;;;4.00;3.60;;;;;;;23.02;59.37;99207.98;220741;1276;22763;-72
2022/07/08 08:40:42;;;;;;;4.50;4.20;;;;;;;22.93;58.47;99214.05;220591;1277;22547;-72
2022/07/08 08:45:45;;;;;;;4.60;4.20;;;;;;;22.58;58.27;99220.30;220732;1276;22595;-72
2022/07/08 08:50:54;;;;;;;5.00;4.50;;;;;;;22.13;58.35;99225.92;220683;1276;22540;-73
2022/07/08 08:56:00;;;;;;;4.30;4.00;;;;;;;21.79;58.83;99226.45;220539;1276;23829;-72
2022/07/08 09:01:03;;;;;;;4.90;4.50;;;;;;;21.55;59.31;99227.40;220669;1276;22576;-72
2022/07/08 09:06:28;;;;;;;4.40;4.00;;;;;;;21.53;59.94;99230.10;220487;1276;22545;-73
2022/07/08 09:11:30;;;;;;;6.10;3.90;;;;;;;21.79;60.11;99234.02;220530;1276;22553;-71
2022/07/08 09:16:46;;;;;;;3.30;3.10;;;;;;;22.13;59.72;99230.38;220540;1276;22817;-69
2022/07/08 09:22:09;;;;;;;5.80;4.20;;;;;;;22.59;58.50;99231.09;220376;1277;22607;-71
2022/07/08 09:27:13;;;;;;;4.10;3.70;;;;;;;23.07;58.35;99229.80;220695;1276;25608;-71
2022/07/08 09:32:15;;;;;;;4.50;4.10;;;;;;;23.16;57.48;99238.86;220680;1276;22621;-73
2022/07/08 09:37:19;;;;;;;4.40;4.00;;;;;;;22.52;56.73;99241.13;220603;1276;23769;-71
2022/07/08 09:42:21;;;;;;;4.30;4.00;;;;;;;21.75;57.51;99249.86;220777;1276;23201;-72
2022/07/08 09:47:33;;;;;;;3.10;2.90;;;;;;;20.87;59.39;99255.52;220913;1276;22467;-71
2022/07/08 09:52:35;;;;;;;3.20;3.00;;;;;;;20.00;61.11;99260.62;220887;1277;26370;-71
2022/07/08 09:57:38;;;;;;;4.40;3.40;;;;;;;19.61;62.59;99263.89;220605;1276;24006;-72
2022/07/08 10:02:53;;;;;;;3.70;2.90;;;;;;;19.54;64.04;99264.50;220731;1276;25451;-72
2022/07/08 10:07:56;;;;;;;3.40;3.20;;;;;;;19.72;64.81;99267.83;220836;1276;24202;-71
2022/07/08 10:12:59;;;;;;;2.90;2.70;;;;;;;19.82;64.75;99277.73;220683;1276;26394;-72
2022/07/08 10:18:15;;;;;;;3.80;3.10;;;;;;;19.94;64.45;99279.32;220932;1276;25522;-71
2022/07/08 10:23:48;;;;;;;2.60;2.40;;;;;;;20.13;64.16;99283.33;220769;1276;26404;-71
2022/07/08 10:29:05;;;;;;;2.80;2.60;;;;;;;20.28;63.85;99285.20;221067;1276;23746;-72
2022/07/08 10:34:25;;;;;;;3.10;2.80;;;;;;;20.57;63.61;99282.73;220584;1276;22569;-72
2022/07/08 10:39:31;;;;;;;3.10;2.80;;;;;;;20.75;62.86;99287.88;220735;1276;22537;-71
2022/07/08 10:44:42;;;;;;;3.00;2.80;;;;;;;20.86;62.74;99285.09;221010;1277;22561;-71
2022/07/08 10:49:46;;;;;;;2.90;2.60;;;;;;;21.11;62.43;99284.55;220647;1277;22611;-72
2022/07/08 10:55:22;;;;;;;3.50;3.30;;;;;;;21.18;61.92;99292.21;221002;1276;24317;-71
2022/07/08 11:01:20;;;;;;;4.90;4.50;;;;;;;21.13;61.43;99283.51;220649;1277;25403;-72
2022/07/08 11:06:36;;;;;;;4.30;3.90;;;;;;;21.19;62.28;99285.77;220928;1276;22537;-72
2022/07/08 11:11:40;;;;;;;4.20;3.90;;;;;;;21.39;61.88;99290.05;220645;1276;24270;-71
2022/07/08 11:16:42;;;;;;;4.80;4.40;;;;;;;21.47;62.13;99287.55;220568;1276;22943;-71
2022/07/08 11:21:45;;;;;;;4.50;4.10;;;;;;;21.58;62.40;99288.56;220542;1276;22544;-71
2022/07/08 11:27:08;;;;;;;5.20;4.70;;;;;;;21.57;62.71;99286.19;220770;1276;22957;-71
2022/07/08 11:32:10;;;;;;;5.40;4.80;;;;;;;21.48;62.79;99280.58;220543;1276;22568;-71
2022/07/08 11:37:13;;;;;;;6.50;5.00;;;;;;;21.23;62.87;99282.14;220740;1276;24268;-72
2022/07/08 11:42:16;;;;;;;7.20;5.10;;;;;;;20.96;62.67;99290.59;220687;1277;24295;-71
2022/07/08 11:47:32;;;;;;;5.70;5.00;;;;;;;20.63;63.42;99288.52;220588;1277;25264;-72
2022/07/08 11:52:50;;;;;;;6.70;5.20;;;;;;;20.11;64.62;99282.02;220837;1278;22676;-72
2022/07/08 11:57:59;;;;;;;7.20;4.80;;;;;;;19.66;65.54;99274.40;220987;1277;24195;-72
2022/07/08 12:03:02;;;;;;;9.90;5.00;;;;;;;19.34;66.21;99271.58;220718;1276;26376;-71
2022/07/08 12:08:11;;;;;;;9.10;6.30;;;;;;;19.21;67.19;99270.20;220560;1278;25410;-71
2022/07/08 12:13:14;;;;;;;9.50;5.90;;;;;;;19.24;67.70;99276.05;220715;1276;22570;-73
2022/07/08 12:18:24;;;;;;;7.60;5.90;;;;;;;19.42;68.01;99272.34;219452;1277;1842064;-71
2022/07/08 12:23:27;;;;;;;8.40;6.00;;;;;;;19.77;68.17;99275.09;220944;1276;22663;-72
2022/07/08 12:28:30;;;;;;;8.10;6.50;;;;;;;20.21;67.53;99273.77;220737;1276;25315;-72
2022/07/08 12:33:35;;;;;;;8.90;5.90;;;;;;;20.69;67.02;99267.84;220537;1276;22558;-71
2022/07/08 12:38:41;;;;;;;6.70;5.00;;;;;;;21.26;66.77;99262.76;220742;1276;22532;-72
2022/07/08 12:43:47;;;;;;;4.80;4.30;;;;;;;21.65;64.91;99262.73;220515;1276;23917;-72
2022/07/08 12:48:49;;;;;;;8.00;4.70;;;;;;;21.62;63.75;99262.73;220626;1276;23032;-73
2022/07/08 12:53:51;;;;;;;7.90;5.10;;;;;;;21.62;63.36;99259.92;220726;1276;26459;-73
2022/07/08 12:58:54;;;;;;;4.40;3.10;;;;;;;21.71;62.38;99251.17;220736;1276;22559;-72
2022/07/08 13:03:56;;;;;;;4.70;2.60;;;;;;;21.77;60.42;99255.13;220780;1278;22609;-72
2022/07/08 13:09:00;;;;;;;3.50;2.40;;;;;;;21.82;59.52;99246.48;220498;1277;22535;-74
2022/07/08 13:14:02;;;;;;;3.60;2.40;;;;;;;22.11;57.99;99247.63;220490;1276;22721;-73
2022/07/08 13:19:05;;;;;;;3.30;2.10;;;;;;;22.45;57.86;99245.52;220398;1278;24283;-72
2022/07/08 13:24:08;;;;;;;4.00;2.20;;;;;;;22.69;57.11;99238.92;220440;1278;22875;-72
2022/07/08 13:29:16;;;;;;;4.80;2.20;;;;;;;22.91;56.71;99242.41;220442;1278;26884;-72
2022/07/08 13:34:22;;;;;;;4.10;2.40;;;;;;;22.91;54.72;99244.69;220486;1280;22560;-71
2022/07/08 13:39:28;;;;;;;3.50;2.70;;;;;;;22.65;54.30;99248.83;219488;1278;22618;-72
2022/07/08 13:44:30;;;;;;;5.60;2.80;;;;;;;22.31;54.44;99243.18;220520;1278;22640;-72
2022/07/08 13:49:35;;;;;;;3.30;2.10;;;;;;;22.02;54.44;99243.27;220752;1278;24481;-72
2022/07/08 13:54:38;;;;;;;2.30;1.80;;;;;;;21.87;54.97;99236.94;220502;1277;24721;-71
2022/07/08 13:59:43;;;;;;;2.00;1.70;;;;;;;21.81;54.73;99238.02;220345;1277;23263;-73
2022/07/08 14:04:46;;;;;;;3.60;1.80;;;;;;;21.78;53.83;99239.05;220235;1278;23371;-71
2022/07/08 14:09:48;;;;;;;2.50;1.70;;;;;;;21.88;53.46;99236.65;220096;1281;22540;-72
2022/07/08 14:14:50;;;;;;;2.10;1.50;;;;;;;22.02;54.17;99232.44;220283;1278;22707;-72
2022/07/08 14:19:56;;;;;;;3.50;1.80;;;;;;;22.27;54.50;99227.71;220314;1278;24347;-71
2022/07/08 14:25:04;;;;;;;5.50;2.20;;;;;;;22.45;53.92;99227.21;220177;1278;22682;-71
2022/07/08 14:30:34;;;;;;;3.10;1.50;;;;;;;22.81;53.31;99223.65;220232;1277;22560;-72
2022/07/08 14:35:36;;;;;;;1.70;1.60;;;;;;;22.90;52.60;99225.30;220285;1277;22583;-72
2022/07/08 14:40:41;;;;;;;2.00;1.40;;;;;;;22.61;51.85;99223.80;220085;1278;22732;-72
2022/07/08 14:45:44;;;;;;;2.50;1.40;;;;;;;22.26;51.68;99217.70;220093;1277;24774;-72
2022/07/08 14:50:49;;;;;;;1.70;1.40;;;;;;;21.97;51.11;99212.84;220054;1278;22594;-72
2022/07/08 14:55:52;;;;;;;2.70;1.50;;;;;;;21.89;51.69;99213.52;220144;1278;23344;-75
2022/07/08 15:00:54;;;;;;;1.40;1.20;;;;;;;21.86;51.56;99220.17;220029;1278;22540;-71
2022/07/08 15:06:01;;;;;;;2.20;1.40;;;;;;;21.92;50.09;99226.76;220212;1277;25434;-73
2022/07/08 15:11:16;;;;;;;2.10;1.10;;;;;;;21.87;49.92;99224.15;220067;1277;26575;-71
2022/07/08 15:16:39;;;;;;;2.30;1.10;;;;;;;21.98;50.18;99224.50;219946;1277;25480;-70
2022/07/08 15:21:41;;;;;;;2.40;1.00;;;;;;;22.13;49.88;99226.54;220185;1278;22705;-72
2022/07/08 15:26:44;;;;;;;2.20;0.90;;;;;;;22.12;48.70;99226.27;220179;1276;25333;-71
2022/07/08 15:31:46;;;;;;;1.80;1.10;;;;;;;22.10;48.51;99221.09;220109;1278;22538;-71
2022/07/08 15:36:49;;;;;;;2.00;1.00;;;;;;;22.27;48.07;99217.05;220021;1276;24240;-73
2022/07/08 15:41:51;;;;;;;1.30;0.90;;;;;;;22.43;47.83;99218.18;219940;1278;22574;-73
2022/07/08 15:46:54;;;;;;;3.80;1.50;;;;;;;22.36;47.58;99230.20;219942;1277;22486;-72
2022/07/08 15:51:57;;;;;;;3.10;1.20;;;;;;;22.38;48.50;99233.20;219957;1278;24238;-71
2022/07/08 15:56:59;;;;;;;2.30;1.30;;;;;;;22.65;48.58;99233.63;219871;1276;24117;-72
2022/07/08 16:02:09;;;;;;;2.30;1.30;;;;;;;22.89;48.26;99229.20;219988;1276;24334;-72
2022/07/08 16:07:11;;;;;;;1.60;1.20;;;;;;;22.92;47.86;99235.11;220266;1276;22773;-72
2022/07/08 16:12:14;;;;;;;1.50;0.90;;;;;;;22.68;47.28;99235.55;220073;1278;25222;-72
2022/07/08 16:17:16;;;;;;;1.30;0.70;;;;;;;22.51;46.60;99232.16;220114;1277;22834;-71
2022/07/08 16:22:19;;;;;;;0.70;0.50;;;;;;;22.36;44.96;99230.58;220209;1278;24279;-71
2022/07/08 16:27:21;;;;;;;0.80;0.60;;;;;;;22.06;44.85;99238.77;219951;1278;23962;-72
2022/07/08 16:32:26;;;;;;;1.10;0.60;;;;;;;21.80;45.43;99241.12;220077;1278;23851;-73
2022/07/08 16:37:29;;;;;;;0.50;0.50;;;;;;;21.53;45.39;99248.01;219898;1277;26374;-73
2022/07/08 16:42:31;;;;;;;1.10;0.50;;;;;;;21.36;46.12;99251.59;220061;1278;24213;-72
2022/07/08 16:47:34;;;;;;;0.80;0.70;;;;;;;21.32;46.64;99257.42;220022;1277;22555;-72
2022/07/08 16:52:37;;;;;;;0.70;0.60;;;;;;;21.49;47.01;99259.47;219846;1278;25375;-71
2022/07/08 16:57:40;;;;;;;1.80;0.80;;;;;;;21.79;47.10;99264.61;219803;1278;22642;-72
2022/07/08 17:02:44;;;;;;;1.10;0.60;;;;;;;21.94;46.40;99271.61;219907;1278;22562;-72
2022/07/08 17:07:51;;;;;;;1.50;0.80;;;;;;;22.01;46.15;99275.14;220039;1276;25384;-72
2022/07/08 17:12:53;;;;;;;0.50;0.50;;;;;;;22.24;45.92;99277.16;219752;1276;22592;-72
2022/07/08 17:18:05;;;;;;;1.60;1.00;;;;;;;23.22;45.68;99280.48;220003;1276;25233;-72
2022/07/08 17:23:08;;;;;;;1.90;0.80;;;;;;;24.75;44.12;99274.23;220015;1276;25248;-72
2022/07/08 17:28:13;;;;;;;1.50;0.90;;;;;;;24.86;41.86;99285.80;220018;1276;22647;-73
2022/07/08 17:33:22;;;;;;;1.20;1.00;;;;;;;24.40;42.23;99291.75;219673;1278;25333;-72
2022/07/08 17:38:27;;;;;;;1.50;0.90;;;;;;;23.81;42.44;99294.55;220066;1277;22566;-71
2022/07/08 17:43:29;;;;;;;1.40;1.10;;;;;;;22.72;43.60;99300.20;219979;1277;22869;-72
2022/07/08 17:48:32;;;;;;;3.80;1.00;;;;;;;21.78;45.02;99304.71;219972;1277;22541;-74
2022/07/08 17:53:35;;;;;;;2.50;1.00;;;;;;;21.09;46.44;99305.33;219974;1277;22565;-71
2022/07/08 17:58:41;;;;;;;2.70;0.80;;;;;;;20.44;47.46;99312.12;219766;1277;22638;-71
2022/07/08 18:03:50;;;;;;;2.00;1.10;;;;;;;20.13;48.33;99315.09;219807;1278;22538;-72
2022/07/08 18:08:52;;;;;;;2.40;0.90;;;;;;;19.89;49.14;99317.42;220020;1278;22537;-71
2022/07/08 18:14:08;;;;;;;1.30;1.00;;;;;;;19.69;49.56;99318.34;219703;1277;23739;-72
2022/07/08 18:19:22;;;;;;;1.80;1.00;;;;;;;19.48;50.17;99321.27;219925;1277;22558;-71
2022/07/08 18:24:24;;;;;;;1.10;0.70;;;;;;;19.28;51.00;99329.98;220062;1277;24244;-71
2022/07/08 18:29:43;;;;;;;1.60;1.00;;;;;;;19.11;51.56;99333.02;219849;1277;25341;-70
2022/07/08 18:35:02;;;;;;;1.70;1.10;;;;;;;18.95;52.21;99336.21;220218;1276;26397;-71
2022/07/08 18:40:08;;;;;;;3.80;1.10;;;;;;;18.83;52.85;99340.71;220019;1276;22557;-72
2022/07/08 18:45:11;;;;;;;2.80;1.00;;;;;;;18.72;53.14;99346.65;220102;1276;22547;-72
2022/07/08 18:50:14;;;;;;;1.60;1.10;;;;;;;18.59;53.59;99355.77;220114;1277;25255;-72
2022/07/08 18:55:16;;;;;;;1.80;1.30;;;;;;;18.44;54.06;99358.74;219931;1276;24361;-73
2022/07/08 19:00:22;;;;;;;1.80;1.10;;;;;;;18.28;54.49;99358.55;219871;1276;22538;-72
2022/07/08 19:05:25;;;;;;;3.00;1.40;;;;;;;18.12;54.95;99369.36;219632;1276;22548;-72
2022/07/08 19:10:27;;;;;;;1.30;1.00;;;;;;;17.96;55.47;99373.14;220109;1278;22537;-72
2022/07/08 19:15:33;;;;;;;1.50;1.10;;;;;;;17.83;55.97;99379.52;219936;1276;24447;-71
2022/07/08 19:20:48;;;;;;;2.30;1.50;;;;;;;17.75;56.39;99390.88;219962;1276;22602;-71
2022/07/08 19:25:51;;;;;;;5.20;1.30;;;;;;;17.71;56.79;99395.45;220022;1276;22580;-72
2022/07/08 19:31:06;;;;;;;2.70;1.30;;;;;;;17.70;57.16;99400.48;219535;1277;22552;-72
2022/07/08 19:36:47;;;;;;;2.50;1.20;;;;;;;17.68;57.52;99411.25;220026;1277;25438;-69
2022/07/08 19:41:56;;;;;;;4.10;1.50;;;;;;;17.67;58.08;99418.08;220075;1277;22543;-72
2022/07/08 19:46:59;;;;;;;4.40;1.70;;;;;;;17.56;59.82;99427.98;219735;1277;22497;-72
2022/07/08 19:52:06;;;;;;;2.20;1.60;;;;;;;17.17;61.61;99429.02;219832;1277;22560;-72
2022/07/08 19:57:09;;;;;;;3.80;1.70;;;;;;;16.76;63.30;99435.89;220110;1277;22540;-73
2022/07/08 20:02:12;;;;;;;3.80;1.80;;;;;;;16.40;64.44;99442.59;220119;1278;22559;-72
2022/07/08 20:07:16;;;;;;;2.90;1.70;;;;;;;16.17;65.39;99448.85;220265;1277;22570;-72
2022/07/08 20:12:18;;;;;;;4.50;1.60;;;;;;;16.03;66.03;99454.48;220349;1276;25255;-73
2022/07/08 20:17:23;;;;;;;1.70;1.30;;;;;;;15.93;66.28;99466.07;220051;1276;24288;-73
2022/07/08 20:22:26;;;;;;;1.90;1.10;;;;;;;15.84;66.18;99473.59;220287;1276;25250;-73
2022/07/08 20:27:31;;;;;;;3.20;1.30;;;;;;;15.73;66.37;99475.06;219995;1276;22800;-72
2022/07/08 20:32:34;;;;;;;2.60;1.50;;;;;;;15.65;67.16;99472.91;219954;1278;22586;-72
2022/07/08 20:37:38;;;;;;;2.10;1.30;;;;;;;15.57;68.11;99473.89;220072;1278;22831;-73
2022/07/08 20:42:41;;;;;;;1.60;1.40;;;;;;;15.51;68.37;99478.29;220155;1277;23079;-71
2022/07/08 20:47:46;;;;;;;5.70;1.70;;;;;;;15.45;69.02;99479.98;220192;1277;22557;-72
2022/07/08 20:53:06;;;;;;;2.60;1.80;;;;;;;15.41;69.60;99479.77;219939;1278;22737;-74
2022/07/08 20:58:10;;;;;;;3.30;1.80;;;;;;;15.30;70.74;99483.66;220195;1276;22812;-73
2022/07/08 21:03:13;;;;;;;4.70;2.60;;;;;;;15.11;71.83;99483.39;220275;1276;22643;-72
2022/07/08 21:08:18;;;;;;;4.70;2.90;;;;;;;14.88;72.57;99480.27;220041;1276;24405;-72
2022/07/08 21:13:25;;;;;;;6.50;2.80;;;;;;;14.68;73.61;99473.01;219982;1276;25522;-71
2022/07/08 21:18:28;;;;;;;3.50;2.50;;;;;;;14.54;74.22;99469.77;219700;1276;22723;-72
2022/07/08 21:23:39;;;;;;;4.60;2.60;;;;;;;14.42;74.95;99455.98;219809;1276;22540;-71
2022/07/08 21:28:42;;;;;;;4.00;2.40;;;;;;;14.32;75.54;99447.67;219798;1276;22636;-72
2022/07/08 21:33:45;;;;;;;3.40;2.90;;;;;;;14.28;76.14;99447.81;219920;1277;24276;-72
2022/07/08 21:38:50;;;;;;;6.80;3.30;;;;;;;14.25;76.56;99437.46;219910;1277;22720;-71
2022/07/08 21:43:57;;;;;;;4.80;3.40;;;;;;;14.22;77.05;99443.55;219778;1277;22563;-72
2022/07/08 21:49:00;;;;;;;4.70;3.00;;;;;;;14.20;77.55;99446.13;219875;1277;22717;-72
2022/07/08 21:54:02;;;;;;;4.50;2.90;;;;;;;14.19;77.97;99441.32;219833;1277;22553;-72
2022/07/08 21:59:05;;;;;;;3.80;2.70;;;;;;;14.17;78.28;99436.73;219895;1277;25449;-72
2022/07/08 22:04:07;;;;;;;4.10;2.60;;;;;;;14.16;78.75;99440.14;219815;1278;23038;-72
2022/07/08 22:09:10;;;;;;;3.70;3.20;;;;;;;14.17;78.99;99438.63;219780;1276;22560;-72
2022/07/08 22:14:12;;;;;;;5.50;3.70;;;;;;;14.18;79.15;99440.75;219986;1276;23082;-70
2022/07/08 22:19:21;;;;;;;3.20;2.90;;;;;;;14.19;79.36;99428.02;219932;1276;25472;-72
2022/07/08 22:24:26;;;;;;;3.70;3.00;;;;;;;14.19;79.59;99425.54;219861;1276;22577;-72
2022/07/08 22:29:29;;;;;;;4.30;2.70;;;;;;;14.19;79.81;99423.98;219924;1277;24251;-72
2022/07/08 22:34:31;;;;;;;4.80;3.30;;;;;;;14.19;80.10;99422.69;219967;1277;22560;-72
2022/07/08 22:39:43;;;;;;;4.80;3.40;;;;;;;14.18;80.20;99420.16;220134;1277;22622;-72
2022/07/08 22:44:46;;;;;;;5.00;3.30;;;;;;;14.19;80.25;99422.86;220065;1278;22710;-71
2022/07/08 22:49:48;;;;;;;5.40;3.00;;;;;;;14.18;80.22;99417.80;220079;1277;22545;-72
2022/07/08 22:54:51;;;;;;;4.20;3.10;;;;;;;14.16;80.04;99417.94;219841;1277;25393;-71
2022/07/08 22:59:54;;;;;;;5.50;3.40;;;;;;;14.12;79.68;99411.33;219925;1277;24244;-71
2022/07/08 23:04:56;;;;;;;3.90;2.80;;;;;;;14.07;79.34;99410.08;220120;1277;22479;-72
2022/07/08 23:10:03;;;;;;;3.40;2.70;;;;;;;14.01;79.12;99410.66;220256;1276;22556;-71
2022/07/08 23:15:06;;;;;;;7.90;3.50;;;;;;;13.94;78.88;99414.59;220384;1277;22544;-72
2022/07/08 23:20:09;;;;;;;5.70;3.10;;;;;;;13.88;78.90;99414.16;220127;1276;22711;-72
2022/07/08 23:25:25;;;;;;;4.90;3.30;;;;;;;13.82;78.92;99418.72;220511;1276;22593;-72
2022/07/08 23:30:27;;;;;;;4.50;3.00;;;;;;;13.77;78.88;99419.88;220169;1277;22538;-72
2022/07/08 23:35:30;;;;;;;5.30;2.90;;;;;;;13.74;79.02;99416.31;220235;1277;22564;-71
2022/07/08 23:40:32;;;;;;;6.70;3.40;;;;;;;13.72;79.11;99419.91;220373;1278;23474;-71
2022/07/08 23:45:59;;;;;;;4.20;3.30;;;;;;;13.70;79.22;99419.61;220185;1277;25272;-72
2022/07/08 23:51:07;;;;;;;8.80;3.60;;;;;;;13.66;79.29;99415.85;220087;1277;22535;-71